Time;durP1;ratioP1;P1;durP2;ratioP2;P2;SDS_P1;SDS_P2;PMS_P1;PMS_P2;Temp;Humidity;BMP_temperature;BMP_pressure;BME280_temperature;BME280_humidity;BME280_pressure;Samples;Min_cycle;Max_cycle;Signal;HPM_P1;HPM_P2
2021/11/06 00:00:57;;;;;;;15.57;7.57;;;;;;;;;;5074709;28;20028;-54
2021/11/06 00:03:23;;;;;;;13.48;6.50;;;;;;;;;;5073463;28;20020;-53
2021/11/06 00:05:49;;;;;;;15.43;6.30;;;;;;;;;;5074280;28;20031;-54
2021/11/06 00:08:15;;;;;;;15.30;7.63;;;;;;;;;;5074195;28;20036;-54
2021/11/06 00:10:41;;;;;;;14.77;6.38;;;;;;;;;;5074676;28;20044;-54
2021/11/06 00:13:07;;;;;;;12.77;6.53;;;;;;;;;;5073295;28;20482;-54
2021/11/06 00:15:33;;;;;;;14.35;6.10;;;;;;;;;;5074304;28;20095;-54
2021/11/06 00:17:59;;;;;;;11.77;6.30;;;;;;;;;;5074100;28;20025;-54
2021/11/06 00:20:25;;;;;;;13.32;6.68;;;;;;;;;;5073942;28;20043;-54
2021/11/06 00:22:51;;;;;;;15.48;7.30;;;;;;;;;;5074053;28;20025;-53
2021/11/06 00:25:17;;;;;;;14.77;6.28;;;;;;;;;;5073651;28;20020;-54
2021/11/06 00:27:46;;;;;;;15.60;6.50;;;;;;;;;;5074170;28;20020;-54
2021/11/06 00:30:12;;;;;;;16.42;6.90;;;;;;;;;;5072420;28;20400;-54
2021/11/06 00:32:38;;;;;;;13.57;6.72;;;;;;;;;;5073710;28;20037;-53
2021/11/06 00:35:05;;;;;;;16.20;7.95;;;;;;;;;;5073058;28;20028;-54
2021/11/06 00:37:31;;;;;;;14.23;6.50;;;;;;;;;;5074219;28;20214;-53
2021/11/06 00:39:57;;;;;;;15.77;7.00;;;;;;;;;;5073917;28;20446;-53
2021/11/06 00:42:23;;;;;;;13.43;6.95;;;;;;;;;;5071161;28;20028;-54
2021/11/06 00:44:49;;;;;;;15.60;6.80;;;;;;;;;;5072624;28;20063;-53
2021/11/06 00:47:15;;;;;;;16.40;7.32;;;;;;;;;;5073843;28;20138;-54
2021/11/06 00:49:43;;;;;;;17.17;7.43;;;;;;;;;;5064311;28;20059;-54
2021/11/06 00:52:09;;;;;;;12.85;5.85;;;;;;;;;;5073428;28;20111;-54
2021/11/06 00:54:35;;;;;;;18.08;6.72;;;;;;;;;;5072740;28;20051;-54
2021/11/06 00:57:01;;;;;;;16.23;7.03;;;;;;;;;;5073462;28;20047;-54
2021/11/06 00:59:27;;;;;;;16.98;7.40;;;;;;;;;;5073034;28;20035;-54
2021/11/06 01:01:53;;;;;;;16.00;7.10;;;;;;;;;;5073324;28;20370;-53
2021/11/06 01:04:19;;;;;;;14.52;6.55;;;;;;;;;;5072195;28;20496;-53
2021/11/06 01:06:45;;;;;;;21.98;7.15;;;;;;;;;;5073460;28;20028;-54
2021/11/06 01:09:11;;;;;;;16.73;7.35;;;;;;;;;;5073662;28;20032;-54
2021/11/06 01:11:38;;;;;;;13.75;7.25;;;;;;;;;;5073278;28;20016;-53
2021/11/06 01:14:04;;;;;;;30.08;8.27;;;;;;;;;;5071796;28;20036;-53
2021/11/06 01:16:30;;;;;;;19.75;7.97;;;;;;;;;;5073159;28;20077;-53
2021/11/06 01:18:57;;;;;;;19.55;8.02;;;;;;;;;;5072942;28;20404;-53
2021/11/06 01:21:23;;;;;;;18.60;7.78;;;;;;;;;;5073495;28;20354;-54
2021/11/06 01:23:49;;;;;;;18.25;6.97;;;;;;;;;;5072093;28;20017;-54
2021/11/06 01:26:15;;;;;;;22.85;8.25;;;;;;;;;;5073249;28;20181;-53
2021/11/06 01:28:41;;;;;;;21.60;8.70;;;;;;;;;;5072682;28;20020;-54
2021/11/06 01:31:07;;;;;;;20.25;8.73;;;;;;;;;;5071846;28;20047;-53
2021/11/06 01:33:33;;;;;;;19.63;9.02;;;;;;;;;;5072375;28;20043;-54
2021/11/06 01:35:59;;;;;;;23.70;8.55;;;;;;;;;;5072937;28;20374;-54
2021/11/06 01:38:26;;;;;;;22.27;8.60;;;;;;;;;;5072951;28;20236;-54
2021/11/06 01:40:52;;;;;;;15.40;7.90;;;;;;;;;;5072610;28;20063;-54
2021/11/06 01:43:18;;;;;;;12.48;6.75;;;;;;;;;;5072512;28;20039;-54
2021/11/06 01:45:44;;;;;;;14.95;7.63;;;;;;;;;;5072730;28;20021;-54
2021/11/06 01:48:10;;;;;;;16.77;7.35;;;;;;;;;;5072906;28;20078;-53
2021/11/06 01:50:36;;;;;;;13.35;6.10;;;;;;;;;;5072789;28;20359;-53
2021/11/06 01:53:03;;;;;;;13.10;6.85;;;;;;;;;;5071737;28;20035;-53
2021/11/06 01:55:29;;;;;;;13.32;6.45;;;;;;;;;;5073162;28;20021;-53
2021/11/06 01:57:55;;;;;;;12.68;7.28;;;;;;;;;;5072595;28;20447;-53
2021/11/06 02:00:22;;;;;;;13.80;6.15;;;;;;;;;;5072748;28;20392;-53
2021/11/06 02:02:48;;;;;;;14.95;7.10;;;;;;;;;;5072789;28;20112;-54
2021/11/06 02:05:15;;;;;;;16.80;7.15;;;;;;;;;;5071984;28;20366;-53
2021/11/06 02:07:41;;;;;;;15.45;7.35;;;;;;;;;;5072585;28;20024;-54
2021/11/06 02:10:08;;;;;;;11.85;6.30;;;;;;;;;;5072898;28;20039;-53
2021/11/06 02:12:34;;;;;;;30.92;7.22;;;;;;;;;;5072914;28;20059;-54
2021/11/06 02:15:01;;;;;;;11.70;6.35;;;;;;;;;;5071680;28;20032;-53
2021/11/06 02:17:27;;;;;;;16.75;6.75;;;;;;;;;;5072493;28;20053;-53
2021/11/06 02:19:53;;;;;;;14.27;6.35;;;;;;;;;;5072351;28;20048;-53
2021/11/06 02:22:19;;;;;;;16.27;6.43;;;;;;;;;;5072162;28;20123;-53
2021/11/06 02:24:45;;;;;;;15.18;6.30;;;;;;;;;;5070090;28;20039;-54
2021/11/06 02:27:11;;;;;;;17.95;7.57;;;;;;;;;;5072761;28;20020;-53
2021/11/06 02:29:37;;;;;;;12.98;5.88;;;;;;;;;;5072589;28;20431;-54
2021/11/06 02:32:05;;;;;;;17.83;6.97;;;;;;;;;;5070935;28;20082;-54
2021/11/06 02:34:31;;;;;;;19.00;5.93;;;;;;;;;;5071714;28;20036;-53
2021/11/06 02:36:57;;;;;;;14.95;5.43;;;;;;;;;;5072491;28;20453;-53
2021/11/06 02:39:23;;;;;;;11.35;5.60;;;;;;;;;;5072800;28;20032;-54
2021/11/06 02:41:50;;;;;;;13.38;6.63;;;;;;;;;;5067030;28;20431;-53
2021/11/06 02:44:16;;;;;;;11.05;5.45;;;;;;;;;;5051485;28;20033;-54
2021/11/06 02:46:42;;;;;;;14.80;6.85;;;;;;;;;;5052062;28;20020;-54
2021/11/06 02:49:08;;;;;;;14.68;6.13;;;;;;;;;;5052445;28;20131;-54
2021/11/06 02:51:35;;;;;;;12.10;5.70;;;;;;;;;;5051439;28;20029;-53
2021/11/06 02:54:01;;;;;;;17.45;5.22;;;;;;;;;;5054939;28;20051;-54
2021/11/06 02:56:27;;;;;;;15.48;5.95;;;;;;;;;;5056101;28;20023;-53
2021/11/06 02:58:54;;;;;;;12.85;6.10;;;;;;;;;;5055795;28;20025;-53
2021/11/06 03:01:21;;;;;;;18.58;6.13;;;;;;;;;;5055147;28;20087;-54
2021/11/06 03:03:47;;;;;;;14.18;6.40;;;;;;;;;;5055043;28;20033;-54
2021/11/06 03:06:13;;;;;;;13.52;6.82;;;;;;;;;;5055933;28;20082;-54
2021/11/06 03:08:39;;;;;;;13.70;6.45;;;;;;;;;;5055439;28;20036;-53
2021/11/06 03:11:05;;;;;;;13.05;6.65;;;;;;;;;;5055697;28;20029;-53
2021/11/06 03:13:32;;;;;;;16.17;6.40;;;;;;;;;;5054916;28;20032;-53
2021/11/06 03:15:58;;;;;;;12.80;5.95;;;;;;;;;;5054996;28;20021;-54
2021/11/06 03:18:24;;;;;;;13.32;5.93;;;;;;;;;;5055754;28;20064;-53
2021/11/06 03:20:50;;;;;;;18.13;5.97;;;;;;;;;;5055174;28;20021;-53
2021/11/06 03:23:16;;;;;;;16.15;6.82;;;;;;;;;;5054409;28;20526;-53
2021/11/06 03:25:42;;;;;;;17.70;7.18;;;;;;;;;;5055208;28;20021;-54
2021/11/06 03:28:08;;;;;;;18.20;7.53;;;;;;;;;;5055555;28;20025;-54
2021/11/06 03:30:34;;;;;;;15.95;6.65;;;;;;;;;;5053735;28;20454;-54
2021/11/06 03:33:00;;;;;;;14.93;6.50;;;;;;;;;;5054468;28;20037;-53
2021/11/06 03:35:26;;;;;;;11.48;5.55;;;;;;;;;;5054360;28;20025;-53
2021/11/06 03:37:52;;;;;;;16.88;6.60;;;;;;;;;;5055233;28;20146;-53
2021/11/06 03:40:19;;;;;;;14.50;6.80;;;;;;;;;;5055053;28;20100;-53
2021/11/06 03:42:46;;;;;;;12.50;6.40;;;;;;;;;;5054022;28;20500;-54
2021/11/06 03:45:12;;;;;;;16.33;7.35;;;;;;;;;;5054234;28;20051;-53
2021/11/06 03:47:39;;;;;;;13.43;5.95;;;;;;;;;;5054913;28;20021;-53
2021/11/06 03:50:06;;;;;;;17.65;7.90;;;;;;;;;;5055013;28;20021;-54
2021/11/06 03:52:32;;;;;;;14.25;7.25;;;;;;;;;;5054462;28;20033;-54
2021/11/06 03:54:58;;;;;;;10.25;5.90;;;;;;;;;;5074074;28;20021;-53
2021/11/06 03:57:24;;;;;;;17.23;7.93;;;;;;;;;;5074137;28;20051;-53
2021/11/06 03:59:50;;;;;;;13.02;7.05;;;;;;;;;;5074505;28;20442;-53
2021/11/06 04:02:16;;;;;;;15.45;7.80;;;;;;;;;;5073622;28;20420;-53
2021/11/06 04:04:42;;;;;;;21.48;6.68;;;;;;;;;;5072409;28;20473;-54
2021/11/06 04:07:08;;;;;;;9.50;5.18;;;;;;;;;;5074614;28;20027;-54
2021/11/06 04:09:34;;;;;;;13.75;5.82;;;;;;;;;;5074000;28;20361;-54
2021/11/06 04:12:00;;;;;;;15.23;6.65;;;;;;;;;;5074493;28;20433;-53
2021/11/06 04:14:26;;;;;;;16.15;7.63;;;;;;;;;;5073481;28;20060;-53
2021/11/06 04:16:53;;;;;;;14.00;6.00;;;;;;;;;;5074201;28;20024;-54
2021/11/06 04:19:19;;;;;;;17.80;6.00;;;;;;;;;;5073816;28;20132;-53
2021/11/06 04:21:45;;;;;;;12.18;5.82;;;;;;;;;;5074043;28;20550;-54
2021/11/06 04:24:11;;;;;;;9.32;6.05;;;;;;;;;;5073321;28;20013;-53
2021/11/06 04:26:37;;;;;;;11.57;5.38;;;;;;;;;;5073830;28;20048;-53
2021/11/06 04:29:03;;;;;;;9.02;5.03;;;;;;;;;;5074154;28;20016;-53
2021/11/06 04:31:29;;;;;;;10.85;5.25;;;;;;;;;;5072555;28;20059;-53
2021/11/06 04:33:55;;;;;;;14.73;6.13;;;;;;;;;;5072839;28;20490;-54
2021/11/06 04:36:21;;;;;;;14.07;5.78;;;;;;;;;;5073861;28;20104;-54
2021/11/06 04:38:47;;;;;;;11.52;4.95;;;;;;;;;;5073496;28;20032;-54
2021/11/06 04:41:13;;;;;;;15.35;5.68;;;;;;;;;;5073634;28;20032;-54
2021/11/06 04:43:39;;;;;;;11.10;5.40;;;;;;;;;;5073130;28;20036;-53
2021/11/06 04:46:06;;;;;;;10.30;5.35;;;;;;;;;;5073569;28;20025;-54
2021/11/06 04:48:31;;;;;;;11.05;5.53;;;;;;;;;;5073110;28;20067;-53
2021/11/06 04:50:58;;;;;;;13.38;5.45;;;;;;;;;;5073056;28;20113;-54
2021/11/06 04:53:24;;;;;;;10.55;5.75;;;;;;;;;;5072490;28;20086;-53
2021/11/06 04:55:50;;;;;;;11.85;5.72;;;;;;;;;;5073852;28;20435;-54
2021/11/06 04:58:16;;;;;;;11.65;5.35;;;;;;;;;;5073413;28;20103;-54
2021/11/06 05:00:42;;;;;;;12.52;5.43;;;;;;;;;;5073701;28;20036;-54
2021/11/06 05:03:08;;;;;;;10.90;5.43;;;;;;;;;;5072115;28;20020;-54
2021/11/06 05:05:34;;;;;;;11.10;5.18;;;;;;;;;;5073090;28;20301;-53
2021/11/06 05:08:00;;;;;;;11.45;6.20;;;;;;;;;;5073498;28;20037;-53
2021/11/06 05:10:26;;;;;;;13.73;6.07;;;;;;;;;;5073548;28;20074;-53
2021/11/06 05:12:52;;;;;;;13.20;5.82;;;;;;;;;;5072755;28;20381;-54
2021/11/06 05:15:19;;;;;;;11.65;5.30;;;;;;;;;;5072570;28;20107;-53
2021/11/06 05:17:45;;;;;;;12.57;5.30;;;;;;;;;;5073375;28;20039;-53
2021/11/06 05:20:11;;;;;;;17.25;5.28;;;;;;;;;;5072470;28;20039;-54
2021/11/06 05:22:37;;;;;;;9.38;4.50;;;;;;;;;;5073004;28;20025;-53
2021/11/06 05:25:04;;;;;;;9.07;4.45;;;;;;;;;;5071773;28;20434;-54
2021/11/06 05:27:31;;;;;;;9.07;4.63;;;;;;;;;;5073225;28;20028;-53
2021/11/06 05:29:59;;;;;;;11.55;4.90;;;;;;;;;;5073076;28;20028;-53
2021/11/06 05:32:25;;;;;;;10.73;3.97;;;;;;;;;;5070799;28;20123;-53
2021/11/06 05:34:53;;;;;;;10.65;4.60;;;;;;;;;;5072049;28;20131;-53
2021/11/06 05:37:18;;;;;;;12.55;6.22;;;;;;;;;;5071692;28;20419;-54
2021/11/06 05:39:45;;;;;;;14.05;5.35;;;;;;;;;;5073151;28;20112;-53
2021/11/06 05:42:11;;;;;;;15.45;5.88;;;;;;;;;;5073017;28;20023;-53
2021/11/06 05:44:37;;;;;;;10.57;5.00;;;;;;;;;;5072079;28;20033;-54
2021/11/06 05:47:03;;;;;;;12.48;5.43;;;;;;;;;;5072797;28;20032;-53
2021/11/06 05:49:29;;;;;;;17.63;5.90;;;;;;;;;;5070853;28;20086;-54
2021/11/06 05:51:55;;;;;;;12.15;5.00;;;;;;;;;;5072053;28;20017;-54
2021/11/06 05:54:21;;;;;;;11.27;5.80;;;;;;;;;;5071657;28;20461;-54
2021/11/06 05:56:47;;;;;;;11.70;5.20;;;;;;;;;;5072665;28;20024;-54
2021/11/06 05:59:13;;;;;;;10.98;5.85;;;;;;;;;;5072131;28;20032;-54
2021/11/06 06:01:39;;;;;;;12.50;5.82;;;;;;;;;;5072457;28;20041;-54
2021/11/06 06:04:05;;;;;;;9.45;4.35;;;;;;;;;;5071734;28;20029;-54
2021/11/06 06:06:31;;;;;;;13.90;5.28;;;;;;;;;;5072461;28;20103;-54
2021/11/06 06:08:57;;;;;;;17.70;6.57;;;;;;;;;;5072601;28;20074;-53
2021/11/06 06:11:23;;;;;;;13.30;5.70;;;;;;;;;;5072588;28;20111;-53
2021/11/06 06:13:49;;;;;;;16.48;5.75;;;;;;;;;;5072078;28;20120;-54
2021/11/06 06:16:15;;;;;;;13.35;5.90;;;;;;;;;;5072001;28;20430;-54
2021/11/06 06:18:44;;;;;;;13.75;4.90;;;;;;;;;;5072722;28;20021;-54
2021/11/06 06:21:10;;;;;;;13.35;5.15;;;;;;;;;;5072612;28;20016;-54
2021/11/06 06:23:36;;;;;;;11.25;5.32;;;;;;;;;;5068386;28;20092;-54
2021/11/06 06:26:03;;;;;;;14.15;5.85;;;;;;;;;;5054016;28;20439;-53
2021/11/06 06:28:29;;;;;;;14.35;5.43;;;;;;;;;;5056173;28;20032;-53
2021/11/06 06:30:55;;;;;;;10.80;5.10;;;;;;;;;;5056853;28;20400;-53
2021/11/06 06:33:21;;;;;;;15.43;5.80;;;;;;;;;;5070689;28;20473;-54
2021/11/06 06:35:46;;;;;;;9.95;5.13;;;;;;;;;;5074107;28;20317;-54
2021/11/06 06:38:12;;;;;;;13.02;5.22;;;;;;;;;;5076065;28;20028;-54
2021/11/06 06:40:38;;;;;;;11.77;5.72;;;;;;;;;;5076229;28;20498;-54
2021/11/06 06:43:04;;;;;;;12.40;4.40;;;;;;;;;;5075341;28;20020;-53
2021/11/06 06:45:31;;;;;;;7.35;4.63;;;;;;;;;;5075661;28;20023;-53
2021/11/06 06:47:57;;;;;;;11.00;5.05;;;;;;;;;;5075700;28;20032;-54
2021/11/06 06:50:23;;;;;;;9.05;4.72;;;;;;;;;;5074652;28;20024;-53
2021/11/06 06:52:51;;;;;;;15.25;5.07;;;;;;;;;;5075832;28;20031;-53
2021/11/06 06:55:17;;;;;;;10.98;5.53;;;;;;;;;;5056135;28;20391;-53
2021/11/06 06:57:44;;;;;;;11.18;5.00;;;;;;;;;;5065287;28;20082;-54
2021/11/06 07:00:11;;;;;;;13.10;4.93;;;;;;;;;;5072765;28;20028;-53
2021/11/06 07:02:38;;;;;;;10.60;4.93;;;;;;;;;;5075793;28;20028;-54
2021/11/06 07:05:04;;;;;;;10.50;5.13;;;;;;;;;;5075050;28;20123;-54
2021/11/06 07:07:31;;;;;;;8.63;4.70;;;;;;;;;;5075096;28;20484;-53
2021/11/06 07:09:57;;;;;;;9.23;4.80;;;;;;;;;;5075553;28;20047;-53
2021/11/06 07:12:26;;;;;;;9.73;4.13;;;;;;;;;;5075223;28;20438;-53
2021/11/06 07:14:53;;;;;;;9.20;4.35;;;;;;;;;;5074310;28;20051;-54
2021/11/06 07:17:19;;;;;;;11.50;4.55;;;;;;;;;;5075660;28;20029;-53
2021/11/06 07:19:45;;;;;;;16.52;5.10;;;;;;;;;;5075230;28;20037;-54
2021/11/06 07:22:11;;;;;;;10.18;4.57;;;;;;;;;;5074903;28;20017;-54
2021/11/06 07:24:37;;;;;;;13.55;4.93;;;;;;;;;;5066702;28;20517;-54
2021/11/06 07:27:05;;;;;;;10.25;4.70;;;;;;;;;;5075455;28;20025;-54
2021/11/06 07:29:31;;;;;;;9.70;5.03;;;;;;;;;;5075034;28;20020;-54
2021/11/06 07:31:57;;;;;;;8.13;4.47;;;;;;;;;;5073315;28;20131;-52
2021/11/06 07:34:23;;;;;;;6.97;3.25;;;;;;;;;;5074072;28;20367;-54
2021/11/06 07:36:50;;;;;;;9.23;4.45;;;;;;;;;;5073869;28;20188;-53
2021/11/06 07:39:16;;;;;;;13.00;5.07;;;;;;;;;;5075094;28;20082;-54
2021/11/06 07:41:42;;;;;;;9.68;4.03;;;;;;;;;;5074894;28;20036;-54
2021/11/06 07:44:09;;;;;;;8.25;4.55;;;;;;;;;;5074141;28;20059;-54
2021/11/06 07:46:35;;;;;;;9.90;5.25;;;;;;;;;;5074655;28;20047;-54
2021/11/06 07:49:01;;;;;;;12.45;5.35;;;;;;;;;;5074620;28;20372;-53
2021/11/06 07:51:28;;;;;;;11.65;5.88;;;;;;;;;;5074446;28;20082;-53
2021/11/06 07:53:54;;;;;;;10.30;5.35;;;;;;;;;;5073880;28;20033;-53
2021/11/06 07:56:20;;;;;;;12.23;5.22;;;;;;;;;;5074357;28;20032;-53
2021/11/06 07:58:46;;;;;;;14.07;6.75;;;;;;;;;;5074718;28;20043;-53
2021/11/06 08:01:13;;;;;;;15.45;6.90;;;;;;;;;;5074467;28;20024;-54
2021/11/06 08:03:39;;;;;;;14.32;7.25;;;;;;;;;;5073553;28;20029;-53
2021/11/06 08:06:06;;;;;;;20.70;7.03;;;;;;;;;;5074152;28;20439;-53
2021/11/06 08:08:32;;;;;;;20.73;7.20;;;;;;;;;;5074705;28;20035;-53
2021/11/06 08:10:58;;;;;;;15.30;7.35;;;;;;;;;;5074556;28;20024;-53
2021/11/06 08:13:24;;;;;;;16.35;6.88;;;;;;;;;;5073366;28;20384;-53
2021/11/06 08:15:50;;;;;;;19.95;6.53;;;;;;;;;;5074004;28;20353;-53
2021/11/06 08:18:16;;;;;;;15.95;7.05;;;;;;;;;;5074442;28;20032;-54
2021/11/06 08:20:42;;;;;;;11.73;5.75;;;;;;;;;;5074360;28;20481;-54
2021/11/06 08:23:08;;;;;;;17.95;8.13;;;;;;;;;;5073111;28;20024;-54
2021/11/06 08:25:34;;;;;;;16.00;6.38;;;;;;;;;;5054991;28;20431;-53
2021/11/06 08:28:00;;;;;;;16.63;6.53;;;;;;;;;;5054477;28;20032;-53
2021/11/06 08:30:27;;;;;;;17.13;7.20;;;;;;;;;;5051711;28;20517;-53
2021/11/06 08:32:54;;;;;;;19.10;6.95;;;;;;;;;;5053520;28;20079;-54
2021/11/06 08:35:22;;;;;;;15.50;6.55;;;;;;;;;;5053949;28;20033;-54
2021/11/06 08:37:48;;;;;;;16.38;6.85;;;;;;;;;;5053932;28;20049;-53
2021/11/06 08:40:15;;;;;;;15.10;5.95;;;;;;;;;;5053567;28;20473;-53
2021/11/06 08:42:41;;;;;;;18.38;7.15;;;;;;;;;;5053566;28;20025;-54
2021/11/06 08:45:09;;;;;;;20.88;8.18;;;;;;;;;;5053110;28;20021;-54
2021/11/06 08:47:35;;;;;;;19.30;6.88;;;;;;;;;;5053997;28;20091;-53
2021/11/06 08:50:02;;;;;;;18.05;7.20;;;;;;;;;;5052851;28;20040;-53
2021/11/06 08:52:28;;;;;;;14.77;6.32;;;;;;;;;;5053280;28;20075;-53
2021/11/06 08:54:54;;;;;;;20.80;7.80;;;;;;;;;;5052965;28;20063;-53
2021/11/06 08:57:20;;;;;;;24.40;8.52;;;;;;;;;;5053139;28;20052;-53
2021/11/06 08:59:49;;;;;;;19.88;8.30;;;;;;;;;;5053578;28;20028;-53
2021/11/06 09:02:17;;;;;;;20.58;7.32;;;;;;;;;;5053518;28;20078;-53
2021/11/06 09:04:43;;;;;;;18.67;7.63;;;;;;;;;;5052539;28;20344;-53
2021/11/06 09:07:09;;;;;;;16.83;7.32;;;;;;;;;;5053213;28;20036;-53
2021/11/06 09:09:35;;;;;;;18.67;7.40;;;;;;;;;;5053364;28;20036;-54
2021/11/06 09:12:04;;;;;;;20.60;9.80;;;;;;;;;;5053390;28;20051;-53
2021/11/06 09:14:30;;;;;;;25.60;9.60;;;;;;;;;;5052868;28;20051;-53
2021/11/06 09:16:56;;;;;;;26.67;9.82;;;;;;;;;;5053314;28;20109;-53
2021/11/06 09:19:22;;;;;;;18.67;7.47;;;;;;;;;;5053289;28;20029;-53
2021/11/06 09:21:48;;;;;;;26.08;10.45;;;;;;;;;;5053084;28;20028;-53
2021/11/06 09:24:17;;;;;;;22.77;9.50;;;;;;;;;;5052305;28;20021;-53
2021/11/06 09:26:43;;;;;;;21.75;8.38;;;;;;;;;;5052920;28;20094;-53
2021/11/06 09:29:11;;;;;;;27.05;9.65;;;;;;;;;;5053269;28;20029;-53
2021/11/06 09:31:37;;;;;;;25.60;9.65;;;;;;;;;;5051282;28;20045;-53
2021/11/06 09:34:05;;;;;;;21.55;8.88;;;;;;;;;;5052146;28;20033;-53
2021/11/06 09:36:31;;;;;;;24.33;10.30;;;;;;;;;;5053061;28;20104;-53
2021/11/06 09:38:57;;;;;;;21.75;8.55;;;;;;;;;;5052885;28;20056;-53
2021/11/06 09:41:23;;;;;;;20.40;8.95;;;;;;;;;;5052750;28;20021;-53
2021/11/06 09:43:49;;;;;;;23.80;9.88;;;;;;;;;;5050722;28;20382;-53
2021/11/06 09:46:16;;;;;;;25.15;10.88;;;;;;;;;;5052468;28;20021;-52
2021/11/06 09:48:44;;;;;;;29.92;9.23;;;;;;;;;;5052950;28;20327;-52
2021/11/06 09:51:10;;;;;;;29.00;11.45;;;;;;;;;;5052788;28;20438;-52
2021/11/06 09:53:40;;;;;;;28.13;10.98;;;;;;;;;;5051337;28;20471;-52
2021/11/06 09:56:06;;;;;;;30.27;11.40;;;;;;;;;;5052559;28;20405;-52
2021/11/06 09:58:33;;;;;;;30.80;10.52;;;;;;;;;;5053017;28;20029;-52
2021/11/06 10:00:59;;;;;;;27.45;10.77;;;;;;;;;;5054252;28;20028;-52
2021/11/06 10:03:25;;;;;;;23.63;9.48;;;;;;;;;;5055778;28;20029;-51
2021/11/06 10:05:51;;;;;;;27.80;10.15;;;;;;;;;;5055327;28;20044;-51
2021/11/06 10:08:18;;;;;;;20.83;8.73;;;;;;;;;;5057024;28;20048;-51
2021/11/06 10:10:45;;;;;;;31.45;12.00;;;;;;;;;;5056184;28;20028;-52
2021/11/06 10:13:11;;;;;;;30.75;10.82;;;;;;;;;;5055605;28;20149;-51
2021/11/06 10:15:42;;;;;;;25.85;10.00;;;;;;;;;;5056655;28;20075;-51
2021/11/06 10:18:28;;;;;;;33.45;9.68;;;;;;;;;;5055844;28;20538;-51
2021/11/06 10:21:14;;;;;;;28.83;11.25;;;;;;;;;;5056292;28;20021;-51
2021/11/06 10:23:41;;;;;;;34.50;11.10;;;;;;;;;;5055506;28;20028;-52
2021/11/06 10:26:26;;;;;;;22.00;9.82;;;;;;;;;;5054856;28;20140;-52
2021/11/06 10:29:09;;;;;;;24.30;10.43;;;;;;;;;;5056733;28;20021;-52
2021/11/06 10:31:50;;;;;;;31.67;12.25;;;;;;;;;;5056160;28;20063;-51
2021/11/06 10:34:16;;;;;;;25.77;9.70;;;;;;;;;;5055094;28;20040;-51
2021/11/06 10:36:42;;;;;;;15.18;8.43;;;;;;;;;;5055081;28;20074;-52
2021/11/06 10:39:09;;;;;;;19.90;8.98;;;;;;;;;;5056283;28;20029;-52
2021/11/06 10:41:37;;;;;;;24.23;9.27;;;;;;;;;;5057517;28;20486;-51
2021/11/06 10:44:03;;;;;;;27.98;9.35;;;;;;;;;;5070470;28;20039;-52
2021/11/06 10:46:30;;;;;;;23.58;8.90;;;;;;;;;;5070926;28;20048;-51
2021/11/06 10:48:56;;;;;;;15.38;7.35;;;;;;;;;;5075801;28;20024;-51
2021/11/06 10:51:23;;;;;;;20.65;9.10;;;;;;;;;;5076165;28;20071;-51
2021/11/06 10:53:53;;;;;;;17.48;6.95;;;;;;;;;;5074898;28;20028;-51
2021/11/06 10:56:19;;;;;;;;;;;;;;;;;;5075962;28;20525;-52
2021/11/06 10:58:47;;;;;;;29.73;8.30;;;;;;;;;;5075732;28;19987;-51
2021/11/06 11:01:14;;;;;;;17.80;7.38;;;;;;;;;;5075454;28;20029;-52
2021/11/06 11:03:40;;;;;;;23.77;8.40;;;;;;;;;;5074978;28;20025;-53
2021/11/06 11:06:11;;;;;;;28.27;7.20;;;;;;;;;;5075911;28;20055;-51
2021/11/06 11:08:44;;;;;;;18.33;8.40;;;;;;;;;;5075786;28;20020;-52
2021/11/06 11:11:10;;;;;;;20.92;8.00;;;;;;;;;;5075332;28;20411;-52
2021/11/06 11:13:46;;;;;;;17.60;7.57;;;;;;;;;;5073041;28;20899;-52
2021/11/06 11:16:15;;;;;;;17.92;7.50;;;;;;;;;;5075316;28;20377;-52
2021/11/06 11:18:41;;;;;;;20.98;8.05;;;;;;;;;;5075611;28;20032;-51
2021/11/06 11:21:09;;;;;;;14.10;6.07;;;;;;;;;;5075737;28;20186;-51
2021/11/06 11:23:35;;;;;;;23.83;9.73;;;;;;;;;;5071612;28;20450;-51
2021/11/06 11:26:01;;;;;;;14.75;7.35;;;;;;;;;;5053866;28;20016;-51
2021/11/06 11:28:27;;;;;;;20.55;9.77;;;;;;;;;;5055453;28;20028;-51
2021/11/06 11:30:54;;;;;;;19.60;7.30;;;;;;;;;;5055182;28;20029;-52
2021/11/06 11:33:20;;;;;;;18.88;8.55;;;;;;;;;;5054242;28;20072;-51
2021/11/06 11:35:46;;;;;;;22.42;9.25;;;;;;;;;;5055106;28;20083;-51
2021/11/06 11:38:13;;;;;;;19.88;9.55;;;;;;;;;;5054934;28;20458;-52
2021/11/06 11:40:43;;;;;;;17.25;8.60;;;;;;;;;;5055296;28;20147;-51
2021/11/06 11:43:27;;;;;;;17.98;7.93;;;;;;;;;;5054090;28;20059;-51
2021/11/06 11:46:01;;;;;;;25.95;9.23;;;;;;;;;;5065835;28;20027;-53
2021/11/06 11:48:28;;;;;;;26.38;10.90;;;;;;;;;;5072423;28;20396;-53
2021/11/06 11:50:58;;;;;;;21.20;7.93;;;;;;;;;;5074284;28;20071;-54
2021/11/06 11:53:26;;;;;;;24.70;8.73;;;;;;;;;;5074280;28;20035;-54
2021/11/06 11:55:55;;;;;;;19.60;7.53;;;;;;;;;;5073343;28;20064;-54
2021/11/06 11:58:25;;;;;;;30.63;11.30;;;;;;;;;;5073676;28;20028;-54
2021/11/06 12:00:58;;;;;;;21.40;9.77;;;;;;;;;;5074820;28;20024;-53
2021/11/06 12:03:28;;;;;;;30.58;9.68;;;;;;;;;;5073817;28;20405;-53
2021/11/06 12:05:54;;;;;;;;;;;;;;;;;;5075193;28;20020;-53
2021/11/06 12:08:26;;;;;;;30.13;7.82;;;;;;;;;;5074768;28;19935;-54
2021/11/06 12:10:56;;;;;;;20.42;7.75;;;;;;;;;;5074113;28;20025;-54
2021/11/06 12:13:31;;;;;;;24.00;9.65;;;;;;;;;;5073237;28;20400;-53
2021/11/06 12:15:58;;;;;;;28.48;10.65;;;;;;;;;;5074437;28;20025;-53
2021/11/06 12:18:33;;;;;;;23.92;8.30;;;;;;;;;;5074327;28;20457;-54
2021/11/06 12:21:15;;;;;;;28.27;10.98;;;;;;;;;;5074279;28;20024;-53
2021/11/06 12:23:45;;;;;;;24.73;7.03;;;;;;;;;;5068942;28;20442;-53
2021/11/06 12:26:15;;;;;;;26.50;9.43;;;;;;;;;;5054260;28;20027;-54
2021/11/06 12:28:45;;;;;;;30.25;10.60;;;;;;;;;;5054341;28;20350;-54
2021/11/06 12:31:23;;;;;;;29.05;10.25;;;;;;;;;;5054121;28;20449;-54
2021/11/06 12:33:50;;;;;;;26.10;9.95;;;;;;;;;;5053202;28;20064;-54
2021/11/06 12:36:20;;;;;;;22.58;9.15;;;;;;;;;;5053643;28;20064;-54
2021/11/06 12:38:46;;;;;;;;;;;;;;;;;;5054538;28;20049;-54
2021/11/06 12:41:12;;;;;;;21.02;9.05;;;;;;;;;;5054220;28;19975;-53
2021/11/06 12:43:49;;;;;;;25.05;9.73;;;;;;;;;;5052841;28;20025;-54
2021/11/06 12:46:18;;;;;;;20.15;8.90;;;;;;;;;;5054089;28;20195;-53
2021/11/06 12:48:45;;;;;;;26.13;10.68;;;;;;;;;;5053875;28;20025;-53
2021/11/06 12:51:13;;;;;;;25.50;10.23;;;;;;;;;;5053706;28;20025;-53
2021/11/06 12:53:42;;;;;;;23.67;10.13;;;;;;;;;;5052915;28;20040;-54
2021/11/06 12:56:28;;;;;;;20.13;8.10;;;;;;;;;;5053551;28;20071;-53
2021/11/06 12:59:05;;;;;;;22.30;9.00;;;;;;;;;;5051988;28;20116;-54
2021/11/06 13:01:32;;;;;;;16.88;8.88;;;;;;;;;;5053702;28;20031;-54
2021/11/06 13:03:59;;;;;;;19.08;7.68;;;;;;;;;;5052362;28;20028;-54
2021/11/06 13:06:30;;;;;;;25.30;10.57;;;;;;;;;;5053395;28;20021;-53
2021/11/06 13:09:15;;;;;;;21.65;9.68;;;;;;;;;;5052489;28;20370;-51
2021/11/06 13:11:53;;;;;;;27.70;10.23;;;;;;;;;;5053525;28;20072;-53
2021/11/06 13:14:31;;;;;;;25.73;9.25;;;;;;;;;;5051853;28;20451;-53
2021/11/06 13:17:08;;;;;;;28.90;10.13;;;;;;;;;;5053534;28;20029;-52
2021/11/06 13:19:48;;;;;;;20.05;8.75;;;;;;;;;;5052856;28;20028;-52
2021/11/06 13:22:38;;;;;;;31.27;10.45;;;;;;;;;;5053184;28;20435;-52
2021/11/06 13:25:04;;;;;;;27.75;9.65;;;;;;;;;;5051591;28;20028;-53
2021/11/06 13:27:48;;;;;;;18.45;7.47;;;;;;;;;;5053199;28;20443;-53
2021/11/06 13:30:33;;;;;;;28.83;9.70;;;;;;;;;;5052865;28;20032;-53
2021/11/06 13:33:00;;;;;;;21.40;9.32;;;;;;;;;;5051208;28;20128;-52
2021/11/06 13:35:46;;;;;;;25.80;9.63;;;;;;;;;;5052480;28;20087;-53
2021/11/06 13:38:13;;;;;;;19.70;7.40;;;;;;;;;;5052639;28;20439;-53
2021/11/06 13:40:42;;;;;;;17.63;7.78;;;;;;;;;;5052829;28;20120;-53
2021/11/06 13:43:16;;;;;;;19.20;8.70;;;;;;;;;;5051736;28;20324;-52
2021/11/06 13:46:02;;;;;;;30.98;11.82;;;;;;;;;;5052715;28;20518;-52
2021/11/06 13:48:29;;;;;;;19.98;7.82;;;;;;;;;;5051374;28;20083;-54
2021/11/06 13:51:09;;;;;;;24.55;9.02;;;;;;;;;;5052464;28;20033;-53
2021/11/06 13:53:35;;;;;;;21.27;10.07;;;;;;;;;;5052110;28;20069;-53
2021/11/06 13:56:01;;;;;;;27.42;9.10;;;;;;;;;;5052302;28;20465;-53
2021/11/06 13:58:28;;;;;;;25.73;8.85;;;;;;;;;;5052929;28;20068;-53
2021/11/06 14:00:54;;;;;;;19.52;9.20;;;;;;;;;;5051379;28;20028;-52
2021/11/06 14:03:21;;;;;;;25.27;10.27;;;;;;;;;;5051538;28;20029;-52
2021/11/06 14:05:48;;;;;;;26.02;8.10;;;;;;;;;;5052556;28;20021;-52
2021/11/06 14:08:15;;;;;;;50.95;11.88;;;;;;;;;;5053004;28;20029;-53
2021/11/06 14:10:41;;;;;;;16.63;6.63;;;;;;;;;;5052613;28;20078;-53
2021/11/06 14:13:11;;;;;;;27.85;10.63;;;;;;;;;;5051910;28;20060;-53
2021/11/06 14:15:40;;;;;;;26.50;9.63;;;;;;;;;;5052396;28;20025;-52
2021/11/06 14:18:09;;;;;;;24.90;9.75;;;;;;;;;;5052118;28;20037;-53
2021/11/06 14:20:40;;;;;;;25.90;7.70;;;;;;;;;;5052607;28;20454;-52
2021/11/06 14:23:06;;;;;;;;;;;;;;;;;;5052230;28;20036;-52
2021/11/06 14:25:40;;;;;;;25.95;9.48;;;;;;;;;;5052283;28;20250;-52
2021/11/06 14:28:08;;;;;;;20.30;8.80;;;;;;;;;;5052425;28;20037;-51
2021/11/06 14:30:46;;;;;;;17.92;8.55;;;;;;;;;;5052067;28;20057;-52
2021/11/06 14:33:12;;;;;;;21.58;8.10;;;;;;;;;;5050119;28;20041;-51